Terminal Aerodrome Forecast
Issued by NWS

Home | Current Version | Previous Version | Text Only | Print | Product List | Glossary On
Versions: 1 2 3 4 5 6 7 8 9 10 11 12 13 14 15 16 17 18
000
FTUS43 KMPX 212300 RRA
TAFRWF
TAF
KRWF 212341Z 2200/2224 15010KT 2SM BR OVC005
     FM220300 14008KT 1 1/2SM -DZ BR OVC002
     FM221500 12012KT 1 1/2SM -RA BR OVC004
     FM222000 13011KT 1SM -SNRA BR OVC004=

USA.gov is the U.S. government's official web portal to all federal, state and local government web resources and services.